createdAt,value
2023-05-25T00:02:16.047Z,57.26
2023-05-25T00:04:48.847Z,57.09
2023-05-25T00:07:19.171Z,57.15
2023-05-25T00:09:49.803Z,57.10
2023-05-25T00:12:19.739Z,57.19
2023-05-25T00:14:49.637Z,57.27
2023-05-25T00:17:19.949Z,57.31
2023-05-25T00:19:50.523Z,57.53
2023-05-25T00:22:20.761Z,57.64
2023-05-25T00:24:50.835Z,57.76
2023-05-25T00:27:20.866Z,58.21
2023-05-25T00:29:51.062Z,58.17
2023-05-25T00:32:22.267Z,58.23
2023-05-25T00:34:52.281Z,58.38
2023-05-25T00:37:22.447Z,58.37
2023-05-25T00:39:53.332Z,58.73
2023-05-25T00:42:23.506Z,59.01
2023-05-25T00:44:53.473Z,58.81
2023-05-25T00:47:24.581Z,58.80
2023-05-25T00:49:56.356Z,58.67
2023-05-25T00:52:27.603Z,58.87
2023-05-25T00:54:57.624Z,59.13
2023-05-25T00:57:28.079Z,59.16
2023-05-25T00:59:57.993Z,59.21
2023-05-25T01:02:31.146Z,59.32
2023-05-25T01:05:02.685Z,59.36
2023-05-25T01:07:37.069Z,59.35
2023-05-25T01:10:09.100Z,59.31
2023-05-25T01:12:40.479Z,59.47
2023-05-25T01:15:11.867Z,59.50
2023-05-25T01:17:43.832Z,59.53
2023-05-25T01:20:14.819Z,59.59
2023-05-25T01:22:47.976Z,59.67
2023-05-25T01:25:21.951Z,59.56
2023-05-25T01:27:54.394Z,59.63
2023-05-25T01:30:25.064Z,59.60
2023-05-25T01:32:55.784Z,59.57
2023-05-25T01:35:25.769Z,59.64
2023-05-25T01:37:56.192Z,59.72
2023-05-25T01:40:26.568Z,59.68
2023-05-25T01:42:56.512Z,59.83
2023-05-25T01:45:26.875Z,59.75
2023-05-25T01:48:14.087Z,59.97
2023-05-25T01:50:46.988Z,60.06
2023-05-25T01:53:18.911Z,60.07
2023-05-25T01:55:50.851Z,60.15
2023-05-25T01:58:21.232Z,60.06
2023-05-25T02:00:51.438Z,60.04
2023-05-25T02:03:21.783Z,60.15
2023-05-25T02:05:52.150Z,60.26
2023-05-25T02:08:22.524Z,60.24
2023-05-25T02:10:52.579Z,60.25
2023-05-25T02:13:23.140Z,60.26
2023-05-25T02:15:54.131Z,60.44
2023-05-25T02:18:24.068Z,60.31
2023-05-25T02:20:57.390Z,60.31
2023-05-25T02:23:28.959Z,60.42
2023-05-25T02:25:59.047Z,60.36
2023-05-25T02:28:29.348Z,60.51
2023-05-25T02:30:59.563Z,60.50
2023-05-25T02:33:29.728Z,60.86
2023-05-25T02:36:00.696Z,60.77
2023-05-25T02:38:30.851Z,60.92
2023-05-25T02:41:01.258Z,61.14
2023-05-25T02:43:31.390Z,61.81
2023-05-25T02:46:01.555Z,62.19
2023-05-25T02:48:31.587Z,62.49
2023-05-25T02:51:02.998Z,61.90
2023-05-25T02:53:34.103Z,55.87
2023-05-25T02:56:06.425Z,54.53
2023-05-25T02:58:37.416Z,55.77
2023-05-25T03:01:18.415Z,57.06
2023-05-25T03:03:53.382Z,58.26
2023-05-25T03:06:26.357Z,58.70
2023-05-25T03:09:09.271Z,59.32
2023-05-25T03:11:39.852Z,59.84
2023-05-25T03:14:11.526Z,59.93
2023-05-25T03:16:42.416Z,60.32
2023-05-25T03:19:13.011Z,60.97
2023-05-25T03:21:43.349Z,61.08
2023-05-25T03:24:13.751Z,61.23
2023-05-25T03:26:44.289Z,61.46
2023-05-25T03:29:14.824Z,61.76
2023-05-25T03:31:44.994Z,61.65
2023-05-25T03:34:16.158Z,61.93
2023-05-25T03:36:47.713Z,62.18
2023-05-25T03:39:19.058Z,62.33
2023-05-25T03:41:49.230Z,62.67
2023-05-25T03:44:22.283Z,61.84
2023-05-25T03:46:52.940Z,55.90
2023-05-25T03:49:23.218Z,54.45
2023-05-25T03:51:53.766Z,55.84
2023-05-25T03:54:23.923Z,57.25
2023-05-25T03:56:54.851Z,58.13
2023-05-25T03:59:25.820Z,58.80
2023-05-25T04:01:56.064Z,59.34
2023-05-25T04:04:28.403Z,59.74
2023-05-25T04:06:59.042Z,60.29
2023-05-25T04:09:29.428Z,60.43
2023-05-25T04:12:00.243Z,60.64
2023-05-25T04:14:30.730Z,60.93
2023-05-25T04:17:00.743Z,61.13
2023-05-25T04:19:31.169Z,61.39
2023-05-25T04:22:01.735Z,61.61
2023-05-25T04:24:34.329Z,61.51
2023-05-25T04:27:05.561Z,61.70
2023-05-25T04:29:37.374Z,61.83
2023-05-25T04:32:29.857Z,62.08
2023-05-25T04:35:21.050Z,62.04
2023-05-25T04:37:54.754Z,61.94
2023-05-25T04:40:24.957Z,62.19
2023-05-25T04:42:57.182Z,62.45
2023-05-25T04:45:29.302Z,62.36
2023-05-25T04:48:01.940Z,62.32
2023-05-25T04:50:34.194Z,62.33
2023-05-25T04:53:04.566Z,62.19
2023-05-25T04:55:34.940Z,62.18
2023-05-25T04:58:05.768Z,62.12
2023-05-25T05:00:36.501Z,61.59
2023-05-25T05:03:06.919Z,61.35
2023-05-25T05:05:37.228Z,61.10
2023-05-25T05:08:09.660Z,61.30
2023-05-25T05:10:40.072Z,61.17
2023-05-25T05:13:11.336Z,61.06
2023-05-25T05:15:41.914Z,60.96
2023-05-25T05:18:14.107Z,60.97
2023-05-25T05:20:44.811Z,60.83
2023-05-25T05:23:15.333Z,60.71
2023-05-25T05:25:46.530Z,60.37
2023-05-25T05:28:18.367Z,60.22
2023-05-25T05:30:49.288Z,59.35
2023-05-25T05:33:19.603Z,59.36
2023-05-25T05:35:50.489Z,59.23
2023-05-25T05:38:25.915Z,58.75
2023-05-25T05:40:56.275Z,58.82
2023-05-25T05:43:26.862Z,58.86
2023-05-25T05:45:56.774Z,58.48
2023-05-25T05:48:27.108Z,58.36
2023-05-25T05:50:57.383Z,58.30
2023-05-25T05:53:27.894Z,58.25
2023-05-25T05:55:59.812Z,57.71
2023-05-25T05:58:30.103Z,57.29
2023-05-25T06:01:01.565Z,57.34
2023-05-25T06:03:32.702Z,56.78
2023-05-25T06:06:03.457Z,56.65
2023-05-25T06:08:33.911Z,56.75
2023-05-25T06:11:03.859Z,56.11
2023-05-25T06:13:33.843Z,56.05
2023-05-25T06:16:04.252Z,56.02
2023-05-25T06:18:34.751Z,54.69
2023-05-25T06:21:06.158Z,55.12
2023-05-25T06:23:36.260Z,54.40
2023-05-25T06:26:06.694Z,53.48
2023-05-25T06:28:36.762Z,54.00
2023-05-25T06:31:07.038Z,53.66
2023-05-25T06:33:37.675Z,53.70
2023-05-25T06:36:11.101Z,53.41
2023-05-25T06:38:42.177Z,53.25
2023-05-25T06:41:15.158Z,52.62
2023-05-25T06:43:46.008Z,52.51
2023-05-25T06:46:27.935Z,52.28
2023-05-25T06:48:58.086Z,51.85
2023-05-25T06:51:28.282Z,51.64
2023-05-25T06:53:58.172Z,50.78
2023-05-25T06:56:28.296Z,50.41
2023-05-25T06:58:58.302Z,50.07
2023-05-25T07:01:28.392Z,50.29
2023-05-25T07:03:58.512Z,49.79
2023-05-25T07:06:28.938Z,49.20
2023-05-25T07:08:59.090Z,48.41
2023-05-25T07:11:29.078Z,47.58
2023-05-25T07:13:59.384Z,47.15
2023-05-25T07:16:29.365Z,46.63
2023-05-25T07:19:00.342Z,46.53
2023-05-25T07:21:36.589Z,47.24
2023-05-25T07:24:07.191Z,46.89
2023-05-25T07:26:37.261Z,46.39
2023-05-25T07:29:07.820Z,46.43
2023-05-25T07:31:37.725Z,46.29
2023-05-25T07:34:07.613Z,46.26
2023-05-25T07:36:37.657Z,46.11
2023-05-25T07:39:09.124Z,45.59
2023-05-25T07:41:39.324Z,45.54
2023-05-25T07:44:09.331Z,45.63
2023-05-25T07:46:39.364Z,44.88
2023-05-25T07:49:13.312Z,43.70
2023-05-25T07:51:43.317Z,42.93
2023-05-25T07:54:13.409Z,43.22
2023-05-25T07:56:43.539Z,43.08
2023-05-25T07:59:14.485Z,43.26
2023-05-25T08:01:44.608Z,43.48
2023-05-25T08:04:14.824Z,42.86
2023-05-25T08:06:46.521Z,42.65
2023-05-25T08:09:16.872Z,42.29
2023-05-25T08:11:48.097Z,42.25
2023-05-25T08:14:18.591Z,40.68
2023-05-25T08:16:48.647Z,41.31
2023-05-25T08:19:18.640Z,40.16
2023-05-25T08:21:48.787Z,37.95
2023-05-25T08:24:18.692Z,37.17
2023-05-25T08:26:54.902Z,38.12
2023-05-25T08:29:25.433Z,38.42
2023-05-25T08:31:55.351Z,37.27
2023-05-25T08:34:25.250Z,38.01
2023-05-25T08:36:55.182Z,38.15
2023-05-25T08:39:25.130Z,37.80
2023-05-25T08:41:55.561Z,35.98
2023-05-25T08:44:25.680Z,37.25
2023-05-25T08:46:56.219Z,37.08
2023-05-25T08:49:26.232Z,36.05
2023-05-25T08:51:57.065Z,36.26
2023-05-25T08:54:32.562Z,36.03
2023-05-25T08:57:04.554Z,35.64
2023-05-25T08:59:37.312Z,35.61
2023-05-25T09:02:13.711Z,34.56
2023-05-25T09:04:44.560Z,35.00
2023-05-25T09:07:14.566Z,33.03
2023-05-25T09:09:44.752Z,33.62
2023-05-25T09:12:14.718Z,33.87
2023-05-25T09:14:48.200Z,33.83
2023-05-25T09:17:20.021Z,32.86
2023-05-25T09:19:51.186Z,32.68
2023-05-25T09:22:21.505Z,32.49
2023-05-25T09:24:51.623Z,32.35
2023-05-25T09:27:22.461Z,32.36
2023-05-25T09:29:52.546Z,32.13
2023-05-25T09:32:22.644Z,31.94
2023-05-25T09:34:53.600Z,32.01
2023-05-25T09:37:23.771Z,31.73
2023-05-25T09:39:53.793Z,31.91
2023-05-25T09:42:23.969Z,30.96
2023-05-25T09:44:54.008Z,31.39
2023-05-25T09:47:23.957Z,30.95
2023-05-25T09:49:54.287Z,31.03
2023-05-25T09:52:24.262Z,30.81
2023-05-25T09:54:55.064Z,31.17
2023-05-25T09:57:24.951Z,30.02
2023-05-25T09:59:54.938Z,30.21
2023-05-25T10:02:24.935Z,30.33
2023-05-25T10:04:55.051Z,30.02
2023-05-25T10:07:28.216Z,28.92
2023-05-25T10:10:00.217Z,29.50
2023-05-25T10:12:30.545Z,29.76
2023-05-25T10:15:00.774Z,29.41
2023-05-25T10:17:31.384Z,28.70
2023-05-25T10:20:01.656Z,28.25
2023-05-25T10:22:35.924Z,28.11
2023-05-25T10:25:10.325Z,28.50
2023-05-25T10:27:41.129Z,27.66
2023-05-25T10:30:12.452Z,27.85
2023-05-25T10:32:43.003Z,27.69
2023-05-25T10:35:13.069Z,27.50
2023-05-25T10:37:43.722Z,27.49
2023-05-25T10:40:15.304Z,27.82
2023-05-25T10:42:45.717Z,27.76
2023-05-25T10:45:16.789Z,27.55
2023-05-25T10:47:47.265Z,27.72
2023-05-25T10:50:26.307Z,27.80
2023-05-25T10:53:03.376Z,28.23
2023-05-25T10:55:43.705Z,27.51
2023-05-25T10:58:14.495Z,27.79
2023-05-25T11:00:45.674Z,26.82
2023-05-25T11:03:15.847Z,27.12
2023-05-25T11:05:46.917Z,27.36
2023-05-25T11:08:19.407Z,27.26
2023-05-25T11:10:54.221Z,27.52
2023-05-25T11:13:32.581Z,27.72
2023-05-25T11:16:20.720Z,27.65
2023-05-25T11:18:55.281Z,27.52
2023-05-25T11:21:45.301Z,27.26
2023-05-25T11:24:18.698Z,27.20
2023-05-25T11:26:56.481Z,27.30
2023-05-25T11:29:27.333Z,27.49
2023-05-25T11:31:57.843Z,27.17
2023-05-25T11:34:28.976Z,27.48
2023-05-25T11:37:02.247Z,27.76
2023-05-25T11:39:32.513Z,27.87
2023-05-25T11:42:06.878Z,28.05
2023-05-25T11:44:39.136Z,27.97
2023-05-25T11:47:10.149Z,28.06
2023-05-25T11:49:46.319Z,28.04
2023-05-25T11:52:16.904Z,28.00
2023-05-25T11:54:47.750Z,27.99
2023-05-25T11:57:18.996Z,28.17
2023-05-25T11:59:52.259Z,28.38
2023-05-25T12:02:22.367Z,28.41
2023-05-25T12:04:55.870Z,27.89
2023-05-25T12:07:26.547Z,26.61
2023-05-25T12:10:07.510Z,27.04
2023-05-25T12:12:41.855Z,26.42
2023-05-25T12:15:13.186Z,26.37
2023-05-25T12:17:44.194Z,26.27
2023-05-25T12:20:15.579Z,25.41
2023-05-25T12:22:46.247Z,26.56
2023-05-25T12:25:19.548Z,26.88
2023-05-25T12:27:49.826Z,26.75
2023-05-25T12:30:19.884Z,26.51
2023-05-25T12:33:02.815Z,26.62
2023-05-25T12:35:46.249Z,26.70
2023-05-25T12:38:17.680Z,26.93
2023-05-25T12:40:48.017Z,27.03
2023-05-25T12:43:18.397Z,27.00
2023-05-25T12:45:48.672Z,27.10
2023-05-25T12:48:18.770Z,27.02
2023-05-25T12:51:01.210Z,27.08
2023-05-25T12:53:31.519Z,27.13
2023-05-25T12:56:04.737Z,27.39
2023-05-25T12:58:35.610Z,27.45
2023-05-25T13:01:09.570Z,27.61
2023-05-25T13:03:40.167Z,27.72
2023-05-25T14:20:26.341Z,32.52
2023-05-25T14:22:56.609Z,32.48
2023-05-25T14:25:26.489Z,32.57
2023-05-25T14:27:57.942Z,32.74
2023-05-25T14:30:27.980Z,32.90
2023-05-25T14:32:59.903Z,33.02
2023-05-25T14:35:30.145Z,33.21
2023-05-25T14:38:00.539Z,33.18
2023-05-25T14:40:30.871Z,33.04
2023-05-25T14:43:00.829Z,32.95
2023-05-25T14:45:30.900Z,32.90
2023-05-25T14:48:15.426Z,32.73
2023-05-25T14:50:46.846Z,32.24
2023-05-25T14:53:16.855Z,32.48
2023-05-25T14:55:46.910Z,32.88
2023-05-25T14:58:16.914Z,33.41
2023-05-25T15:00:46.809Z,34.45
2023-05-25T15:03:17.178Z,35.24
2023-05-25T15:05:47.688Z,35.93
2023-05-25T15:08:17.658Z,36.91
2023-05-25T15:10:49.086Z,37.11
2023-05-25T15:13:22.516Z,37.92
2023-05-25T15:15:57.140Z,38.97
2023-05-25T15:18:27.173Z,40.02
2023-05-25T15:20:58.138Z,40.43
2023-05-25T15:23:28.459Z,40.67
2023-05-25T15:26:03.088Z,41.50
2023-05-25T15:28:33.140Z,42.05
2023-05-25T15:31:03.497Z,42.68
2023-05-25T15:36:07.981Z,44.13
2023-05-25T15:38:38.273Z,44.25
2023-05-25T15:41:08.585Z,44.59
2023-05-25T15:43:38.744Z,45.32
2023-05-25T15:46:08.742Z,45.60
2023-05-25T15:48:39.012Z,45.65
2023-05-25T15:51:09.247Z,46.27
2023-05-25T15:53:39.790Z,46.30
2023-05-25T15:56:09.902Z,47.06
2023-05-25T15:58:40.041Z,47.57
2023-05-25T16:01:12.508Z,47.79
2023-05-25T16:03:44.922Z,48.15
2023-05-25T16:06:16.990Z,48.14
2023-05-25T16:08:47.253Z,48.43
2023-05-25T16:11:17.267Z,49.24
2023-05-25T16:13:48.751Z,50.15
2023-05-25T16:16:21.292Z,50.29
2023-05-25T16:18:51.822Z,51.21
2023-05-25T16:21:21.798Z,51.97
2023-05-25T16:23:52.109Z,51.71
2023-05-25T16:26:22.541Z,51.24
2023-05-25T16:28:52.477Z,51.13
2023-05-25T16:31:22.462Z,50.96
2023-05-25T16:33:52.410Z,51.01
2023-05-25T16:36:22.736Z,50.83
2023-05-25T16:38:53.895Z,51.06
2023-05-25T16:41:24.027Z,51.55
2023-05-25T16:43:54.257Z,51.81
2023-05-25T16:46:25.736Z,52.32
2023-05-25T16:48:56.776Z,52.59
2023-05-25T16:51:27.246Z,52.74
2023-05-25T16:53:57.476Z,52.42
2023-05-25T16:56:27.953Z,52.93
2023-05-25T16:58:58.107Z,53.03
2023-05-25T17:01:28.183Z,52.86
2023-05-25T17:03:58.409Z,52.65
2023-05-25T17:22:32.489Z,54.63
2023-05-25T17:25:03.726Z,54.52
2023-05-25T17:27:33.882Z,54.58
2023-05-25T17:30:05.066Z,54.73
2023-05-25T17:32:36.000Z,54.74
2023-05-25T17:35:06.507Z,54.59
2023-05-25T17:37:36.784Z,54.73
2023-05-25T17:50:47.750Z,54.65
2023-05-25T17:53:18.450Z,54.93
2023-05-25T17:55:48.805Z,55.16
2023-05-25T17:58:19.203Z,55.57
2023-05-25T18:00:49.479Z,55.92
2023-05-25T18:03:19.665Z,55.83
2023-05-25T18:05:50.126Z,55.83
2023-05-25T18:08:21.324Z,55.43
2023-05-25T18:10:52.964Z,55.33
2023-05-25T18:13:23.018Z,55.54
2023-05-25T18:15:53.027Z,55.72
2023-05-25T18:18:24.817Z,55.69
2023-05-25T18:20:54.782Z,55.50
2023-05-25T18:23:24.985Z,55.58
2023-05-25T18:25:55.193Z,55.80
2023-05-25T18:28:25.874Z,56.08
2023-05-25T18:30:56.097Z,56.27
2023-05-25T18:33:27.294Z,56.57
2023-05-25T18:35:58.112Z,56.81
2023-05-25T18:38:28.320Z,56.89
2023-05-25T18:40:58.583Z,57.11
2023-05-25T18:43:28.621Z,57.13
2023-05-25T18:45:58.797Z,57.58
2023-05-25T18:48:28.961Z,57.93
2023-05-25T18:50:58.885Z,58.11
2023-05-25T18:53:29.113Z,58.65
2023-05-25T18:55:59.313Z,58.53
2023-05-25T18:58:29.424Z,58.48
2023-05-25T19:00:59.550Z,58.50
2023-05-25T19:03:30.251Z,58.37
2023-05-25T19:06:00.601Z,58.63
2023-05-25T19:08:30.732Z,58.53
2023-05-25T19:11:00.770Z,58.56
2023-05-25T19:13:31.550Z,58.27
2023-05-25T19:16:03.593Z,58.27
2023-05-25T19:18:34.257Z,58.49
2023-05-25T19:21:05.046Z,58.48
2023-05-25T19:23:35.471Z,58.18
2023-05-25T19:26:06.551Z,58.64
2023-05-25T19:28:37.025Z,58.37
2023-05-25T19:31:07.049Z,58.37
2023-05-25T19:33:37.228Z,58.56
2023-05-25T19:36:07.561Z,58.58
2023-05-25T19:38:42.250Z,58.83
2023-05-25T19:41:12.453Z,58.87
2023-05-25T19:43:42.498Z,59.18
2023-05-25T19:46:12.470Z,59.32
2023-05-25T19:48:43.013Z,59.35
2023-05-25T19:51:13.142Z,59.38
2023-05-25T19:53:43.578Z,59.52
2023-05-25T19:56:13.457Z,59.67
2023-05-25T19:58:46.408Z,59.87
2023-05-25T20:01:16.622Z,60.05
2023-05-25T20:03:46.799Z,59.99
2023-05-25T20:06:17.154Z,60.12
2023-05-25T20:08:47.776Z,60.26
2023-05-25T20:11:18.283Z,60.23
2023-05-25T20:13:49.765Z,60.19
2023-05-25T20:16:19.850Z,60.02
2023-05-25T20:18:49.836Z,60.00
2023-05-25T20:21:20.839Z,60.00
2023-05-25T20:23:51.769Z,59.95
2023-05-25T20:26:21.764Z,59.93
2023-05-25T20:28:52.454Z,59.99
2023-05-25T20:31:23.758Z,60.02
2023-05-25T20:33:53.785Z,60.04
2023-05-25T20:36:24.407Z,60.04
2023-05-25T20:38:54.841Z,60.15
2023-05-25T20:41:24.966Z,60.21
2023-05-25T20:43:55.073Z,60.25
2023-05-25T20:46:26.230Z,60.30
2023-05-25T20:48:58.586Z,60.31
2023-05-25T20:51:28.646Z,60.32
2023-05-25T20:53:58.906Z,60.28
2023-05-25T20:56:29.054Z,60.30
2023-05-25T20:58:59.263Z,60.25
2023-05-25T21:01:29.685Z,60.30
2023-05-25T21:03:59.727Z,60.33
2023-05-25T21:06:30.387Z,60.45
2023-05-25T21:09:01.670Z,60.48
2023-05-25T21:11:32.014Z,60.58
2023-05-25T21:14:02.206Z,60.63
2023-05-25T21:16:32.781Z,60.67
2023-05-25T21:19:03.004Z,60.67
2023-05-25T21:21:34.023Z,60.61
2023-05-25T21:24:04.100Z,60.72
2023-05-25T21:26:34.985Z,60.84
2023-05-25T21:29:05.096Z,60.70
2023-05-25T21:31:35.268Z,60.74
2023-05-25T21:34:05.464Z,60.94
2023-05-25T21:36:36.090Z,61.02
2023-05-25T21:39:06.399Z,60.97
2023-05-25T21:41:36.636Z,60.95
2023-05-25T21:44:07.033Z,61.07
2023-05-25T21:46:38.644Z,61.18
2023-05-25T21:49:08.911Z,61.45
2023-05-25T21:51:39.152Z,61.38
2023-05-25T21:54:09.228Z,61.44
2023-05-25T21:56:39.704Z,61.54
2023-05-25T21:59:09.571Z,61.46
2023-05-25T22:01:39.628Z,61.61
2023-05-25T22:04:09.801Z,61.54
2023-05-25T22:06:40.334Z,61.59
2023-05-25T22:09:10.664Z,61.63
2023-05-25T22:11:41.623Z,61.50
2023-05-25T22:14:12.324Z,61.59
2023-05-25T22:16:43.181Z,61.65
2023-05-25T22:19:13.436Z,61.63
2023-05-25T22:21:43.554Z,61.76
2023-05-25T22:24:14.199Z,61.67
2023-05-25T22:26:52.596Z,61.76
2023-05-25T22:29:24.283Z,61.81
2023-05-25T22:31:55.843Z,61.68
2023-05-25T22:34:26.975Z,61.88
2023-05-25T22:36:58.746Z,61.79
2023-05-25T22:39:30.367Z,61.91
2023-05-25T22:42:01.507Z,61.84
2023-05-25T22:44:31.584Z,61.69
2023-05-25T22:47:01.506Z,61.65
2023-05-25T22:49:31.642Z,61.79
2023-05-25T22:52:01.740Z,61.80
2023-05-25T22:54:31.988Z,61.73
2023-05-25T22:57:02.312Z,61.63
2023-05-25T22:59:32.262Z,61.62
2023-05-25T23:02:02.525Z,61.59
2023-05-25T23:04:32.684Z,61.60
2023-05-25T23:07:02.818Z,61.60
2023-05-25T23:09:32.877Z,61.55
2023-05-25T23:12:03.533Z,61.60
2023-05-25T23:14:35.768Z,61.65
2023-05-25T23:17:06.313Z,61.79
2023-05-25T23:19:36.213Z,61.80
2023-05-25T23:22:06.242Z,61.94
2023-05-25T23:24:36.515Z,61.72
2023-05-25T23:27:09.242Z,61.62
2023-05-25T23:29:39.438Z,61.34
2023-05-25T23:32:09.727Z,61.41
2023-05-25T23:34:40.227Z,61.39
2023-05-25T23:37:10.780Z,61.54
2023-05-25T23:39:42.297Z,61.46
2023-05-25T23:42:15.478Z,61.50
2023-05-25T23:44:45.636Z,61.51
2023-05-25T23:47:16.080Z,61.55
2023-05-25T23:49:46.613Z,61.59
2023-05-25T23:52:16.932Z,61.88
2023-05-25T23:54:47.074Z,61.78
2023-05-25T23:57:17.230Z,61.62
2023-05-25T23:59:47.095Z,61.61
